NOZ1862 ENGM-LIPE
Flight info
| Callsign | NOZ1862 |
|---|---|
| Flight time | 2h 21m |
| Altitude | 37000 |
| Route | VIPPA DCT ARTOR DCT AMRAK/N0429F380 DCT WRB/N0432F390 N850 XAROL/N0430F380 DCT BOMBI DCT GIGET DCT ABUKA/N0437F390 DCT BATUB DCT TIRUL M738 NATAG DCT LORLO DCT UNTAD DCT NEGIK DCT ADOSA M738 BENUS |
| Aircraft | B738/M-SDE2E3GHILRWXY/LB1 |
Departure
| Time | 2026-04-30 06:10 |
|---|---|
| Airport | Oslo-Gardermoen International Airport (ENGM) |
Arrival
| Time | 2026-04-30 08:32 |
|---|---|
| Airport | Bologna Guglielmo Marconi Airport (LIPE) |
| Time | Latitude | Longitude | Altitude | Speed | Heading |
|---|---|---|---|---|---|
| 2026-04-30 05:54 | 60.19553 | 11.09907 | 684 ft | 0 kts | 106° |
| 2026-04-30 05:59 | 60.19559 | 11.09865 | 684 ft | 4 kts | 106° |
| 2026-04-30 06:00 | 60.19567 | 11.09813 | 684 ft | 4 kts | 106° |
| 2026-04-30 06:00 | 60.19571 | 11.09784 | 681 ft | 0 kts | 106° |
| 2026-04-30 06:02 | 60.19571 | 11.09789 | 684 ft | 1 kts | 86° |
| 2026-04-30 06:02 | 60.19595 | 11.09788 | 679 ft | 7 kts | 345° |
| 2026-04-30 06:03 | 60.19626 | 11.09769 | 684 ft | 10 kts | 343° |
| 2026-04-30 06:03 | 60.19633 | 11.09765 | 678 ft | 11 kts | 344° |
| 2026-04-30 06:03 | 60.19724 | 11.09776 | 683 ft | 16 kts | 16° |
| 2026-04-30 06:03 | 60.19747 | 11.09789 | 680 ft | 17 kts | 16° |
| 2026-04-30 06:04 | 60.19875 | 11.09863 | 682 ft | 21 kts | 16° |
| 2026-04-30 06:04 | 60.19907 | 11.09881 | 681 ft | 22 kts | 16° |
| 2026-04-30 06:04 | 60.20022 | 11.09943 | 680 ft | 14 kts | 360° |
| 2026-04-30 06:05 | 60.20101 | 11.09627 | 679 ft | 13 kts | 286° |
| 2026-04-30 06:05 | 60.20128 | 11.09442 | 677 ft | 16 kts | 286° |
| 2026-04-30 06:05 | 60.20164 | 11.09191 | 679 ft | 21 kts | 286° |
| 2026-04-30 06:05 | 60.20210 | 11.08958 | 679 ft | 14 kts | 326° |
| 2026-04-30 06:06 | 60.20291 | 11.08970 | 681 ft | 14 kts | 16° |
| 2026-04-30 06:06 | 60.20344 | 11.09001 | 681 ft | 13 kts | 16° |
| 2026-04-30 06:06 | 60.20373 | 11.09018 | 678 ft | 14 kts | 16° |
| 2026-04-30 06:06 | 60.20481 | 11.09080 | 681 ft | 19 kts | 16° |
| 2026-04-30 06:07 | 60.20615 | 11.09157 | 682 ft | 20 kts | 16° |
| 2026-04-30 06:07 | 60.20748 | 11.09234 | 683 ft | 20 kts | 16° |
| 2026-04-30 06:07 | 60.20875 | 11.09308 | 684 ft | 19 kts | 16° |
| 2026-04-30 06:07 | 60.21001 | 11.09380 | 683 ft | 18 kts | 16° |
| 2026-04-30 06:08 | 60.21122 | 11.09450 | 680 ft | 18 kts | 16° |
| 2026-04-30 06:08 | 60.21245 | 11.09521 | 684 ft | 20 kts | 15° |
| 2026-04-30 06:08 | 60.21388 | 11.09604 | 686 ft | 22 kts | 16° |
| 2026-04-30 06:08 | 60.21522 | 11.09589 | 680 ft | 11 kts | 321° |
| 2026-04-30 06:09 | 60.21555 | 11.09447 | 683 ft | 11 kts | 286° |
| 2026-04-30 06:09 | 60.21575 | 11.09306 | 683 ft | 10 kts | 285° |
| 2026-04-30 06:09 | 60.21577 | 11.09165 | 681 ft | 11 kts | 236° |
| 2026-04-30 06:09 | 60.21536 | 11.09126 | 680 ft | 0 kts | 195° |
| 2026-04-30 06:10 | 60.21459 | 11.09082 | 680 ft | 41 kts | 196° |
| 2026-04-30 06:10 | 60.20938 | 11.08781 | 680 ft | 112 kts | 196° |
| 2026-04-30 06:10 | 60.20001 | 11.08240 | 774 ft | 158 kts | 196° |
| 2026-04-30 06:10 | 60.18921 | 11.07613 | 1427 ft | 161 kts | 196° |
| 2026-04-30 06:11 | 60.17836 | 11.06949 | 2053 ft | 174 kts | 197° |
| 2026-04-30 06:11 | 60.16656 | 11.05799 | 2345 ft | 205 kts | 223° |
| 2026-04-30 06:11 | 60.15861 | 11.03256 | 2577 ft | 227 kts | 247° |
| 2026-04-30 06:11 | 60.15218 | 11.00277 | 3033 ft | 236 kts | 246° |
| 2026-04-30 06:12 | 60.14549 | 10.97223 | 3602 ft | 239 kts | 246° |
| 2026-04-30 06:12 | 60.13867 | 10.94155 | 4173 ft | 242 kts | 246° |
| 2026-04-30 06:12 | 60.13166 | 10.91087 | 4787 ft | 242 kts | 246° |
| 2026-04-30 06:12 | 60.12459 | 10.88010 | 5387 ft | 243 kts | 246° |
| 2026-04-30 06:13 | 60.11745 | 10.84923 | 5988 ft | 243 kts | 246° |
| 2026-04-30 06:13 | 60.11035 | 10.81853 | 6616 ft | 243 kts | 247° |
| 2026-04-30 06:13 | 60.10318 | 10.78749 | 7141 ft | 247 kts | 247° |
| 2026-04-30 06:13 | 60.09592 | 10.75609 | 7673 ft | 250 kts | 247° |
| 2026-04-30 06:14 | 60.08862 | 10.72458 | 8192 ft | 255 kts | 246° |
| 2026-04-30 06:14 | 60.08086 | 10.69110 | 8444 ft | 273 kts | 246° |
| 2026-04-30 06:14 | 60.07272 | 10.65610 | 9135 ft | 279 kts | 246° |
| 2026-04-30 06:14 | 60.06446 | 10.62069 | 9964 ft | 281 kts | 247° |
| 2026-04-30 06:15 | 60.05593 | 10.58518 | 10669 ft | 287 kts | 242° |
| 2026-04-30 06:15 | 60.04161 | 10.55487 | 10885 ft | 319 kts | 213° |
| 2026-04-30 06:15 | 60.01981 | 10.54050 | 11254 ft | 339 kts | 192° |
| 2026-04-30 06:15 | 59.99629 | 10.53279 | 11910 ft | 346 kts | 191° |
| 2026-04-30 06:16 | 59.97229 | 10.52541 | 12583 ft | 353 kts | 190° |
| 2026-04-30 06:16 | 59.94781 | 10.51786 | 13269 ft | 358 kts | 190° |
| 2026-04-30 06:16 | 59.92307 | 10.51007 | 14040 ft | 361 kts | 191° |
| 2026-04-30 06:16 | 59.89808 | 10.50202 | 14749 ft | 367 kts | 191° |
| 2026-04-30 06:17 | 59.87301 | 10.49382 | 15439 ft | 372 kts | 191° |
| 2026-04-30 06:17 | 59.84733 | 10.48534 | 16168 ft | 376 kts | 191° |
| 2026-04-30 06:17 | 59.82133 | 10.47672 | 16852 ft | 381 kts | 191° |
| 2026-04-30 06:17 | 59.79500 | 10.46797 | 17519 ft | 387 kts | 191° |
| 2026-04-30 06:18 | 59.76834 | 10.45913 | 18205 ft | 391 kts | 191° |
| 2026-04-30 06:18 | 59.74136 | 10.45018 | 18852 ft | 395 kts | 191° |
| 2026-04-30 06:18 | 59.71413 | 10.44116 | 19529 ft | 399 kts | 191° |
| 2026-04-30 06:18 | 59.68668 | 10.43209 | 20201 ft | 401 kts | 191° |
| 2026-04-30 06:19 | 59.65902 | 10.42298 | 20836 ft | 405 kts | 191° |
| 2026-04-30 06:19 | 59.63108 | 10.41379 | 21439 ft | 408 kts | 191° |
| 2026-04-30 06:19 | 59.60294 | 10.40455 | 22023 ft | 412 kts | 191° |
| 2026-04-30 06:19 | 59.57451 | 10.39516 | 22575 ft | 416 kts | 191° |
| 2026-04-30 06:20 | 59.54582 | 10.38551 | 23137 ft | 419 kts | 191° |
| 2026-04-30 06:20 | 59.51699 | 10.37573 | 23686 ft | 422 kts | 192° |
| 2026-04-30 06:20 | 59.48791 | 10.36586 | 24211 ft | 425 kts | 192° |
| 2026-04-30 06:20 | 59.45866 | 10.35596 | 24723 ft | 428 kts | 192° |
| 2026-04-30 06:21 | 59.42957 | 10.34612 | 25214 ft | 431 kts | 191° |
| 2026-04-30 06:21 | 59.39995 | 10.33617 | 25721 ft | 433 kts | 191° |
| 2026-04-30 06:21 | 59.37020 | 10.32621 | 26184 ft | 436 kts | 191° |
| 2026-04-30 06:21 | 59.34011 | 10.31615 | 26627 ft | 439 kts | 191° |
| 2026-04-30 06:22 | 59.30997 | 10.30609 | 27098 ft | 441 kts | 191° |
| 2026-04-30 06:22 | 59.27965 | 10.29598 | 27530 ft | 443 kts | 191° |
| 2026-04-30 06:22 | 59.24907 | 10.28580 | 27940 ft | 446 kts | 191° |
| 2026-04-30 06:22 | 59.21842 | 10.27560 | 28330 ft | 448 kts | 191° |
| 2026-04-30 06:23 | 59.18756 | 10.26536 | 28705 ft | 451 kts | 191° |
| 2026-04-30 06:23 | 59.15645 | 10.25568 | 29073 ft | 454 kts | 188° |
| 2026-04-30 06:23 | 59.12487 | 10.25012 | 29453 ft | 456 kts | 184° |
| 2026-04-30 06:23 | 59.09308 | 10.24679 | 29852 ft | 458 kts | 184° |
| 2026-04-30 06:24 | 59.06125 | 10.24380 | 30193 ft | 460 kts | 184° |
| 2026-04-30 06:24 | 59.02921 | 10.24035 | 30501 ft | 462 kts | 184° |
| 2026-04-30 06:24 | 58.99697 | 10.23633 | 30776 ft | 466 kts | 185° |
| 2026-04-30 06:24 | 58.96458 | 10.23200 | 31090 ft | 468 kts | 185° |
| 2026-04-30 06:25 | 58.93198 | 10.22758 | 31392 ft | 469 kts | 185° |
| 2026-04-30 06:25 | 58.89937 | 10.22315 | 31679 ft | 471 kts | 185° |
| 2026-04-30 06:25 | 58.86652 | 10.21876 | 31987 ft | 472 kts | 185° |
| 2026-04-30 06:25 | 58.83419 | 10.21447 | 32368 ft | 471 kts | 185° |
| 2026-04-30 06:26 | 58.80150 | 10.21015 | 32752 ft | 470 kts | 185° |
| 2026-04-30 06:26 | 58.76881 | 10.20584 | 33124 ft | 470 kts | 185° |
| 2026-04-30 06:26 | 58.73622 | 10.20156 | 33451 ft | 470 kts | 185° |
| 2026-04-30 06:26 | 58.70366 | 10.19726 | 33769 ft | 469 kts | 185° |
| 2026-04-30 06:27 | 58.67103 | 10.19294 | 34117 ft | 469 kts | 185° |
| 2026-04-30 06:27 | 58.63858 | 10.18868 | 34475 ft | 467 kts | 185° |
| 2026-04-30 06:27 | 58.60613 | 10.18442 | 34792 ft | 467 kts | 184° |
| 2026-04-30 06:27 | 58.57369 | 10.18017 | 35090 ft | 467 kts | 184° |
| 2026-04-30 06:28 | 58.54126 | 10.17591 | 35393 ft | 466 kts | 184° |
| 2026-04-30 06:28 | 58.50886 | 10.17169 | 35692 ft | 466 kts | 184° |
| 2026-04-30 06:28 | 58.47649 | 10.16748 | 35977 ft | 465 kts | 184° |
| 2026-04-30 06:28 | 58.44455 | 10.16337 | 36231 ft | 465 kts | 184° |
| 2026-04-30 06:29 | 58.41224 | 10.15915 | 36461 ft | 466 kts | 184° |
| 2026-04-30 06:29 | 58.37982 | 10.15493 | 36711 ft | 466 kts | 184° |
| 2026-04-30 06:29 | 58.34760 | 10.15076 | 37147 ft | 460 kts | 184° |
| 2026-04-30 06:29 | 58.31589 | 10.14669 | 37461 ft | 458 kts | 184° |
| 2026-04-30 06:30 | 58.28375 | 10.14266 | 37440 ft | 462 kts | 184° |
| 2026-04-30 06:30 | 58.23044 | 10.13609 | 37444 ft | 461 kts | 184° |
| 2026-04-30 06:31 | 58.16691 | 10.12824 | 37438 ft | 454 kts | 184° |
| 2026-04-30 06:31 | 58.10388 | 10.12053 | 37455 ft | 453 kts | 184° |
| 2026-04-30 06:32 | 58.04127 | 10.11288 | 37451 ft | 454 kts | 184° |
| 2026-04-30 06:32 | 57.97822 | 10.10518 | 37454 ft | 454 kts | 184° |
| 2026-04-30 06:33 | 57.91509 | 10.09748 | 37466 ft | 454 kts | 184° |
| 2026-04-30 06:33 | 57.85193 | 10.08980 | 37461 ft | 455 kts | 184° |
| 2026-04-30 06:34 | 57.78871 | 10.08215 | 37467 ft | 455 kts | 184° |
| 2026-04-30 06:34 | 57.72538 | 10.07451 | 37469 ft | 456 kts | 184° |
| 2026-04-30 06:35 | 57.66199 | 10.06688 | 37469 ft | 457 kts | 184° |
| 2026-04-30 06:35 | 57.59847 | 10.05929 | 37467 ft | 457 kts | 184° |
| 2026-04-30 06:36 | 57.53536 | 10.05172 | 37479 ft | 457 kts | 183° |
| 2026-04-30 06:36 | 57.47176 | 10.04417 | 37476 ft | 458 kts | 183° |
| 2026-04-30 06:37 | 57.40818 | 10.03666 | 37479 ft | 458 kts | 183° |
| 2026-04-30 06:37 | 57.34457 | 10.02914 | 37477 ft | 458 kts | 183° |
| 2026-04-30 06:38 | 57.28083 | 10.02165 | 37476 ft | 458 kts | 183° |
| 2026-04-30 06:38 | 57.21716 | 10.01417 | 37476 ft | 458 kts | 183° |
| 2026-04-30 06:39 | 57.15352 | 10.00674 | 37484 ft | 458 kts | 183° |
| 2026-04-30 06:39 | 57.09022 | 9.99944 | 37481 ft | 459 kts | 183° |
| 2026-04-30 06:40 | 57.02667 | 9.99204 | 37486 ft | 457 kts | 183° |
| 2026-04-30 06:40 | 56.96318 | 9.98469 | 37478 ft | 456 kts | 183° |
| 2026-04-30 06:41 | 56.89993 | 9.97738 | 37480 ft | 455 kts | 183° |
| 2026-04-30 06:41 | 56.83686 | 9.97012 | 37488 ft | 454 kts | 183° |
| 2026-04-30 06:42 | 56.77390 | 9.96290 | 37485 ft | 452 kts | 183° |
| 2026-04-30 06:42 | 56.71112 | 9.95575 | 37492 ft | 451 kts | 183° |
| 2026-04-30 06:43 | 56.64847 | 9.94864 | 37497 ft | 450 kts | 183° |
| 2026-04-30 06:43 | 56.58633 | 9.94161 | 37496 ft | 450 kts | 183° |
| 2026-04-30 06:44 | 56.52368 | 9.93452 | 37498 ft | 450 kts | 183° |
| 2026-04-30 06:44 | 56.46097 | 9.92745 | 37507 ft | 451 kts | 183° |
| 2026-04-30 06:45 | 56.39823 | 9.92042 | 37507 ft | 452 kts | 183° |
| 2026-04-30 06:45 | 56.33575 | 9.91343 | 37509 ft | 453 kts | 183° |
| 2026-04-30 06:46 | 56.27268 | 9.90640 | 37507 ft | 455 kts | 183° |
| 2026-04-30 06:46 | 56.20938 | 9.89934 | 37512 ft | 456 kts | 183° |
| 2026-04-30 06:47 | 56.14591 | 9.89237 | 37511 ft | 457 kts | 182° |
| 2026-04-30 06:47 | 56.08242 | 9.88538 | 37519 ft | 457 kts | 183° |
| 2026-04-30 06:48 | 56.01886 | 9.87834 | 37525 ft | 458 kts | 182° |
| 2026-04-30 06:48 | 55.95565 | 9.87140 | 37520 ft | 458 kts | 182° |
| 2026-04-30 06:49 | 55.89203 | 9.86446 | 37523 ft | 457 kts | 183° |
| 2026-04-30 06:49 | 55.82848 | 9.85752 | 37523 ft | 457 kts | 182° |
| 2026-04-30 06:50 | 55.76506 | 9.85065 | 37524 ft | 456 kts | 182° |
| 2026-04-30 06:50 | 55.70166 | 9.84380 | 37531 ft | 456 kts | 182° |
| 2026-04-30 06:51 | 55.63868 | 9.83696 | 37532 ft | 455 kts | 182° |
| 2026-04-30 06:51 | 55.57549 | 9.83017 | 37531 ft | 455 kts | 182° |
| 2026-04-30 06:52 | 55.51229 | 9.82341 | 37531 ft | 454 kts | 182° |
| 2026-04-30 06:52 | 55.44921 | 9.81667 | 37533 ft | 454 kts | 182° |
| 2026-04-30 06:53 | 55.38616 | 9.80994 | 37531 ft | 454 kts | 182° |
| 2026-04-30 06:53 | 55.32306 | 9.80325 | 37535 ft | 454 kts | 182° |
| 2026-04-30 06:54 | 55.25996 | 9.79656 | 37529 ft | 454 kts | 182° |
| 2026-04-30 06:54 | 55.19680 | 9.78989 | 37536 ft | 455 kts | 182° |
| 2026-04-30 06:55 | 55.13358 | 9.78327 | 37531 ft | 455 kts | 182° |
| 2026-04-30 06:55 | 55.07072 | 9.77667 | 37532 ft | 456 kts | 182° |
| 2026-04-30 06:56 | 55.00739 | 9.77004 | 37532 ft | 457 kts | 182° |
| 2026-04-30 06:56 | 54.94378 | 9.76344 | 37532 ft | 457 kts | 182° |
| 2026-04-30 06:57 | 54.88014 | 9.75681 | 37533 ft | 458 kts | 181° |
| 2026-04-30 06:57 | 54.81645 | 9.74996 | 37533 ft | 459 kts | 183° |
| 2026-04-30 06:58 | 54.75295 | 9.73803 | 37533 ft | 459 kts | 186° |
| 2026-04-30 06:58 | 54.68935 | 9.72393 | 37532 ft | 460 kts | 186° |
| 2026-04-30 06:59 | 54.62620 | 9.71021 | 37531 ft | 461 kts | 185° |
| 2026-04-30 06:59 | 54.56257 | 9.69683 | 37535 ft | 461 kts | 185° |
| 2026-04-30 07:00 | 54.49868 | 9.68365 | 37528 ft | 462 kts | 185° |
| 2026-04-30 07:00 | 54.43479 | 9.67062 | 37533 ft | 463 kts | 185° |
| 2026-04-30 07:01 | 54.37071 | 9.65754 | 37533 ft | 463 kts | 185° |
| 2026-04-30 07:01 | 54.30691 | 9.64453 | 37530 ft | 464 kts | 185° |
| 2026-04-30 07:02 | 54.24262 | 9.63147 | 37531 ft | 465 kts | 185° |
| 2026-04-30 07:02 | 54.17844 | 9.61846 | 37535 ft | 465 kts | 185° |
| 2026-04-30 07:03 | 54.11416 | 9.60552 | 37529 ft | 465 kts | 185° |
| 2026-04-30 07:03 | 54.04987 | 9.59258 | 37534 ft | 465 kts | 185° |
| 2026-04-30 07:04 | 53.98603 | 9.57977 | 37530 ft | 465 kts | 185° |
| 2026-04-30 07:04 | 53.92179 | 9.56694 | 37533 ft | 464 kts | 184° |
| 2026-04-30 07:05 | 53.82562 | 9.54783 | 37531 ft | 464 kts | 184° |
| 2026-04-30 07:05 | 53.76159 | 9.53509 | 37533 ft | 463 kts | 184° |
| 2026-04-30 07:06 | 53.69760 | 9.52240 | 37530 ft | 463 kts | 184° |
| 2026-04-30 07:06 | 53.63397 | 9.50983 | 37534 ft | 462 kts | 184° |
| 2026-04-30 07:07 | 53.57005 | 9.49728 | 37537 ft | 462 kts | 184° |
| 2026-04-30 07:07 | 53.50615 | 9.48479 | 37531 ft | 462 kts | 184° |
| 2026-04-30 07:08 | 53.44224 | 9.47232 | 37532 ft | 462 kts | 184° |
| 2026-04-30 07:08 | 53.37874 | 9.45995 | 37532 ft | 462 kts | 184° |
| 2026-04-30 07:09 | 53.31488 | 9.44754 | 37535 ft | 461 kts | 184° |
| 2026-04-30 07:09 | 53.25097 | 9.43516 | 37532 ft | 461 kts | 184° |
| 2026-04-30 07:10 | 53.18715 | 9.42285 | 37532 ft | 461 kts | 184° |
| 2026-04-30 07:10 | 53.12378 | 9.41066 | 37529 ft | 461 kts | 184° |
| 2026-04-30 07:11 | 53.06000 | 9.39843 | 37533 ft | 461 kts | 184° |
| 2026-04-30 07:11 | 52.99615 | 9.38615 | 37535 ft | 462 kts | 184° |
| 2026-04-30 07:12 | 52.93212 | 9.37393 | 37529 ft | 462 kts | 184° |
| 2026-04-30 07:12 | 52.86815 | 9.36180 | 37522 ft | 463 kts | 184° |
| 2026-04-30 07:13 | 52.80415 | 9.34968 | 37523 ft | 463 kts | 184° |
| 2026-04-30 07:13 | 52.74047 | 9.33764 | 37523 ft | 463 kts | 184° |
| 2026-04-30 07:14 | 52.67643 | 9.32555 | 37518 ft | 462 kts | 184° |
| 2026-04-30 07:14 | 52.61249 | 9.31352 | 37515 ft | 463 kts | 184° |
| 2026-04-30 07:15 | 52.54836 | 9.30152 | 37518 ft | 464 kts | 184° |
| 2026-04-30 07:15 | 52.48421 | 9.28953 | 37514 ft | 464 kts | 184° |
| 2026-04-30 07:16 | 52.42013 | 9.27761 | 37514 ft | 463 kts | 184° |
| 2026-04-30 07:16 | 52.35588 | 9.26567 | 37510 ft | 463 kts | 184° |
| 2026-04-30 07:17 | 52.29225 | 9.25389 | 37517 ft | 463 kts | 184° |
| 2026-04-30 07:18 | 52.19610 | 9.23617 | 37511 ft | 463 kts | 184° |
| 2026-04-30 07:18 | 52.14285 | 9.22637 | 37500 ft | 463 kts | 184° |
| 2026-04-30 07:19 | 52.07879 | 9.21461 | 37501 ft | 463 kts | 184° |
| 2026-04-30 07:19 | 52.01488 | 9.20291 | 37509 ft | 462 kts | 184° |
| 2026-04-30 07:20 | 51.95093 | 9.19125 | 37506 ft | 462 kts | 183° |
| 2026-04-30 07:20 | 51.88704 | 9.17963 | 37496 ft | 462 kts | 183° |
| 2026-04-30 07:21 | 51.82323 | 9.16805 | 37499 ft | 461 kts | 183° |
| 2026-04-30 07:21 | 51.75977 | 9.15657 | 37494 ft | 462 kts | 183° |
| 2026-04-30 07:22 | 51.66395 | 9.13931 | 37491 ft | 462 kts | 183° |
| 2026-04-30 07:22 | 51.59988 | 9.12780 | 37487 ft | 463 kts | 183° |
| 2026-04-30 07:23 | 51.53579 | 9.11633 | 37472 ft | 462 kts | 183° |
| 2026-04-30 07:23 | 51.47208 | 9.10128 | 37474 ft | 464 kts | 189° |
| 2026-04-30 07:24 | 51.40906 | 9.07852 | 37477 ft | 464 kts | 190° |
| 2026-04-30 07:24 | 51.34594 | 9.05637 | 37476 ft | 464 kts | 189° |
| 2026-04-30 07:25 | 51.28294 | 9.03813 | 37477 ft | 462 kts | 185° |
| 2026-04-30 07:25 | 51.21919 | 9.02567 | 37477 ft | 462 kts | 184° |
| 2026-04-30 07:26 | 51.15519 | 9.01369 | 37479 ft | 462 kts | 184° |
| 2026-04-30 07:26 | 51.09171 | 9.00139 | 37478 ft | 462 kts | 184° |
| 2026-04-30 07:27 | 51.02786 | 8.98875 | 37475 ft | 462 kts | 184° |
| 2026-04-30 07:27 | 50.96414 | 8.97613 | 37478 ft | 461 kts | 184° |
| 2026-04-30 07:28 | 50.90050 | 8.96353 | 37475 ft | 461 kts | 184° |
| 2026-04-30 07:28 | 50.83685 | 8.95095 | 37466 ft | 461 kts | 184° |
| 2026-04-30 07:29 | 50.77318 | 8.93845 | 37467 ft | 461 kts | 184° |
| 2026-04-30 07:29 | 50.70959 | 8.92597 | 37473 ft | 461 kts | 184° |
| 2026-04-30 07:30 | 50.61398 | 8.90731 | 37450 ft | 461 kts | 184° |
| 2026-04-30 07:31 | 50.55060 | 8.89498 | 37443 ft | 462 kts | 184° |
| 2026-04-30 07:31 | 50.48687 | 8.88260 | 37440 ft | 462 kts | 184° |
| 2026-04-30 07:32 | 50.42308 | 8.87025 | 37440 ft | 461 kts | 184° |
| 2026-04-30 07:32 | 50.35925 | 8.85791 | 37442 ft | 461 kts | 184° |
| 2026-04-30 07:33 | 50.29552 | 8.84565 | 37439 ft | 461 kts | 184° |
| 2026-04-30 07:33 | 50.23184 | 8.83342 | 37450 ft | 461 kts | 184° |
| 2026-04-30 07:34 | 50.16809 | 8.82118 | 37449 ft | 461 kts | 184° |
| 2026-04-30 07:34 | 50.10426 | 8.80900 | 37452 ft | 461 kts | 184° |
| 2026-04-30 07:35 | 50.04101 | 8.79689 | 37451 ft | 461 kts | 184° |
| 2026-04-30 07:35 | 49.97732 | 8.78380 | 37449 ft | 461 kts | 185° |
| 2026-04-30 07:36 | 49.91365 | 8.77054 | 37447 ft | 461 kts | 185° |
| 2026-04-30 07:36 | 49.85001 | 8.75743 | 37456 ft | 461 kts | 185° |
| 2026-04-30 07:37 | 49.78634 | 8.74441 | 37442 ft | 461 kts | 185° |
| 2026-04-30 07:37 | 49.72308 | 8.73150 | 37434 ft | 461 kts | 185° |
| 2026-04-30 07:38 | 49.65931 | 8.71849 | 37417 ft | 462 kts | 185° |
| 2026-04-30 07:38 | 49.59559 | 8.70552 | 37415 ft | 462 kts | 185° |
| 2026-04-30 07:39 | 49.53189 | 8.69255 | 37405 ft | 462 kts | 185° |
| 2026-04-30 07:39 | 49.46814 | 8.68854 | 37402 ft | 455 kts | 169° |
| 2026-04-30 07:40 | 49.40788 | 8.71307 | 37400 ft | 444 kts | 153° |
| 2026-04-30 07:40 | 49.35125 | 8.74943 | 37398 ft | 444 kts | 152° |
| 2026-04-30 07:41 | 49.29427 | 8.78604 | 37391 ft | 444 kts | 153° |
| 2026-04-30 07:41 | 49.23707 | 8.82217 | 37383 ft | 445 kts | 153° |
| 2026-04-30 07:42 | 49.17968 | 8.85800 | 37379 ft | 446 kts | 153° |
| 2026-04-30 07:42 | 49.12220 | 8.89379 | 37372 ft | 447 kts | 153° |
| 2026-04-30 07:43 | 49.06456 | 8.92960 | 37365 ft | 447 kts | 153° |
| 2026-04-30 07:43 | 49.00683 | 8.96538 | 37356 ft | 448 kts | 153° |
| 2026-04-30 07:44 | 48.94894 | 9.00116 | 37353 ft | 449 kts | 154° |
| 2026-04-30 07:44 | 48.89104 | 9.03686 | 37349 ft | 449 kts | 154° |
| 2026-04-30 07:45 | 48.83300 | 9.07256 | 37338 ft | 450 kts | 154° |
| 2026-04-30 07:45 | 48.77497 | 9.10814 | 37334 ft | 450 kts | 154° |
| 2026-04-30 07:46 | 48.71714 | 9.14346 | 37326 ft | 451 kts | 154° |
| 2026-04-30 07:46 | 48.65892 | 9.17901 | 37328 ft | 450 kts | 154° |
| 2026-04-30 07:47 | 48.60077 | 9.21445 | 37321 ft | 450 kts | 154° |
| 2026-04-30 07:47 | 48.54265 | 9.24974 | 37320 ft | 450 kts | 154° |
| 2026-04-30 07:48 | 48.48463 | 9.28491 | 37320 ft | 450 kts | 154° |
| 2026-04-30 07:48 | 48.42652 | 9.32007 | 37330 ft | 450 kts | 154° |
| 2026-04-30 07:49 | 48.36839 | 9.35514 | 37333 ft | 451 kts | 154° |
| 2026-04-30 07:49 | 48.31003 | 9.39025 | 37327 ft | 452 kts | 154° |
| 2026-04-30 07:50 | 48.25190 | 9.42511 | 37319 ft | 453 kts | 154° |
| 2026-04-30 07:50 | 48.19332 | 9.46017 | 37319 ft | 453 kts | 154° |
| 2026-04-30 07:51 | 48.13477 | 9.49512 | 37309 ft | 453 kts | 154° |
| 2026-04-30 07:51 | 48.07614 | 9.52996 | 37293 ft | 453 kts | 154° |
| 2026-04-30 07:52 | 48.01799 | 9.56590 | 37291 ft | 450 kts | 149° |
| 2026-04-30 07:52 | 47.96590 | 9.61622 | 37298 ft | 446 kts | 141° |
| 2026-04-30 07:53 | 47.91500 | 9.66940 | 37300 ft | 447 kts | 141° |
| 2026-04-30 07:53 | 47.86418 | 9.72201 | 37290 ft | 447 kts | 141° |
| 2026-04-30 07:54 | 47.81277 | 9.77450 | 37293 ft | 448 kts | 141° |
| 2026-04-30 07:54 | 47.76118 | 9.82686 | 37279 ft | 448 kts | 141° |
| 2026-04-30 07:55 | 47.70953 | 9.87912 | 37283 ft | 449 kts | 141° |
| 2026-04-30 07:55 | 47.65783 | 9.93130 | 37286 ft | 449 kts | 142° |
| 2026-04-30 07:56 | 47.60641 | 9.98309 | 37276 ft | 449 kts | 142° |
| 2026-04-30 07:56 | 47.55471 | 10.03506 | 37275 ft | 449 kts | 142° |
| 2026-04-30 07:57 | 47.50303 | 10.08694 | 37276 ft | 448 kts | 142° |
| 2026-04-30 07:57 | 47.45131 | 10.13856 | 37264 ft | 448 kts | 142° |
| 2026-04-30 07:58 | 47.39967 | 10.19009 | 37282 ft | 448 kts | 142° |
| 2026-04-30 07:58 | 47.34842 | 10.24115 | 37278 ft | 448 kts | 142° |
| 2026-04-30 07:59 | 47.29670 | 10.29253 | 37288 ft | 449 kts | 142° |
| 2026-04-30 07:59 | 47.24480 | 10.34394 | 37292 ft | 450 kts | 143° |
| 2026-04-30 08:00 | 47.16646 | 10.42132 | 37290 ft | 453 kts | 143° |
| 2026-04-30 08:00 | 47.11403 | 10.47296 | 37286 ft | 454 kts | 143° |
| 2026-04-30 08:01 | 47.06090 | 10.52359 | 37264 ft | 457 kts | 150° |
| 2026-04-30 08:01 | 47.00113 | 10.55601 | 37286 ft | 459 kts | 162° |
| 2026-04-30 08:02 | 46.90911 | 10.59585 | 37280 ft | 460 kts | 161° |
| 2026-04-30 08:03 | 46.78711 | 10.65078 | 37258 ft | 460 kts | 162° |
| 2026-04-30 08:03 | 46.75597 | 10.66471 | 36868 ft | 464 kts | 162° |
| 2026-04-30 08:04 | 46.72522 | 10.67839 | 36378 ft | 461 kts | 163° |
| 2026-04-30 08:04 | 46.69464 | 10.69000 | 36004 ft | 457 kts | 166° |
| 2026-04-30 08:04 | 46.66378 | 10.70023 | 35591 ft | 453 kts | 167° |
| 2026-04-30 08:04 | 46.63304 | 10.70987 | 35202 ft | 449 kts | 167° |
| 2026-04-30 08:05 | 46.60266 | 10.71932 | 34794 ft | 445 kts | 167° |
| 2026-04-30 08:05 | 46.57245 | 10.72885 | 34397 ft | 442 kts | 166° |
| 2026-04-30 08:05 | 46.55258 | 10.73519 | 34117 ft | 441 kts | 166° |
| 2026-04-30 08:05 | 46.52274 | 10.74481 | 33704 ft | 438 kts | 166° |
| 2026-04-30 08:06 | 46.49310 | 10.75442 | 33302 ft | 435 kts | 166° |
| 2026-04-30 08:06 | 46.46368 | 10.76399 | 32891 ft | 432 kts | 166° |
| 2026-04-30 08:06 | 46.43439 | 10.77354 | 32496 ft | 429 kts | 166° |
| 2026-04-30 08:06 | 46.40536 | 10.78299 | 32097 ft | 426 kts | 166° |
| 2026-04-30 08:07 | 46.37647 | 10.79238 | 31704 ft | 424 kts | 166° |
| 2026-04-30 08:07 | 46.34769 | 10.80171 | 31287 ft | 421 kts | 166° |
| 2026-04-30 08:07 | 46.31907 | 10.81097 | 30900 ft | 418 kts | 166° |
| 2026-04-30 08:07 | 46.29111 | 10.82002 | 30535 ft | 416 kts | 166° |
| 2026-04-30 08:08 | 46.26291 | 10.82914 | 30132 ft | 414 kts | 166° |
| 2026-04-30 08:08 | 46.23485 | 10.83820 | 29734 ft | 411 kts | 166° |
| 2026-04-30 08:08 | 46.20696 | 10.84719 | 29338 ft | 408 kts | 166° |
| 2026-04-30 08:08 | 46.17932 | 10.85606 | 28945 ft | 406 kts | 166° |
| 2026-04-30 08:09 | 46.15182 | 10.86488 | 28544 ft | 404 kts | 166° |
| 2026-04-30 08:09 | 46.12446 | 10.87364 | 28132 ft | 402 kts | 166° |
| 2026-04-30 08:09 | 46.09718 | 10.88239 | 27732 ft | 399 kts | 166° |
| 2026-04-30 08:09 | 46.07008 | 10.89105 | 27339 ft | 397 kts | 166° |
| 2026-04-30 08:10 | 46.04356 | 10.89950 | 26950 ft | 395 kts | 166° |
| 2026-04-30 08:10 | 46.01680 | 10.90805 | 26562 ft | 393 kts | 166° |
| 2026-04-30 08:10 | 45.99023 | 10.91653 | 26180 ft | 390 kts | 166° |
| 2026-04-30 08:10 | 45.96377 | 10.92498 | 25784 ft | 388 kts | 167° |
| 2026-04-30 08:11 | 45.93744 | 10.93337 | 25402 ft | 386 kts | 168° |
| 2026-04-30 08:11 | 45.91125 | 10.94170 | 25019 ft | 385 kts | 168° |
| 2026-04-30 08:11 | 45.88512 | 10.95001 | 24621 ft | 383 kts | 168° |
| 2026-04-30 08:11 | 45.85915 | 10.95825 | 24243 ft | 381 kts | 167° |
| 2026-04-30 08:12 | 45.83326 | 10.96647 | 23867 ft | 379 kts | 167° |
| 2026-04-30 08:12 | 45.80748 | 10.97463 | 23481 ft | 378 kts | 167° |
| 2026-04-30 08:12 | 45.78186 | 10.98270 | 23128 ft | 376 kts | 167° |
| 2026-04-30 08:12 | 45.75634 | 10.99072 | 22742 ft | 374 kts | 167° |
| 2026-04-30 08:13 | 45.73102 | 10.99868 | 22380 ft | 372 kts | 167° |
| 2026-04-30 08:13 | 45.70582 | 11.00660 | 22005 ft | 370 kts | 167° |
| 2026-04-30 08:13 | 45.68070 | 11.01448 | 21628 ft | 368 kts | 167° |
| 2026-04-30 08:13 | 45.65578 | 11.02229 | 21264 ft | 366 kts | 167° |
| 2026-04-30 08:14 | 45.63093 | 11.02984 | 20898 ft | 364 kts | 169° |
| 2026-04-30 08:14 | 45.60609 | 11.03622 | 20548 ft | 361 kts | 171° |
| 2026-04-30 08:14 | 45.58140 | 11.04207 | 20196 ft | 358 kts | 171° |
| 2026-04-30 08:14 | 45.55712 | 11.04773 | 19844 ft | 356 kts | 171° |
| 2026-04-30 08:15 | 45.53269 | 11.05348 | 19480 ft | 354 kts | 171° |
| 2026-04-30 08:15 | 45.50841 | 11.05927 | 19121 ft | 352 kts | 171° |
| 2026-04-30 08:15 | 45.48432 | 11.06507 | 18761 ft | 350 kts | 170° |
| 2026-04-30 08:15 | 45.46029 | 11.07088 | 18404 ft | 348 kts | 170° |
| 2026-04-30 08:16 | 45.43631 | 11.07576 | 18069 ft | 346 kts | 177° |
| 2026-04-30 08:16 | 45.41254 | 11.07625 | 17724 ft | 338 kts | 181° |
| 2026-04-30 08:16 | 45.38912 | 11.07552 | 17177 ft | 335 kts | 182° |
| 2026-04-30 08:16 | 45.36582 | 11.07458 | 16587 ft | 334 kts | 182° |
| 2026-04-30 08:17 | 45.34269 | 11.07370 | 16063 ft | 331 kts | 182° |
| 2026-04-30 08:17 | 45.32010 | 11.07297 | 15545 ft | 327 kts | 181° |
| 2026-04-30 08:17 | 45.29718 | 11.07235 | 15020 ft | 323 kts | 181° |
| 2026-04-30 08:17 | 45.27509 | 11.07184 | 14484 ft | 321 kts | 181° |
| 2026-04-30 08:18 | 45.25291 | 11.07137 | 13971 ft | 317 kts | 181° |
| 2026-04-30 08:18 | 45.23089 | 11.07094 | 13458 ft | 314 kts | 181° |
| 2026-04-30 08:18 | 45.20913 | 11.07053 | 12953 ft | 311 kts | 181° |
| 2026-04-30 08:18 | 45.18754 | 11.07014 | 12439 ft | 308 kts | 181° |
| 2026-04-30 08:19 | 45.16620 | 11.06976 | 11927 ft | 306 kts | 180° |
| 2026-04-30 08:19 | 45.14504 | 11.06938 | 11421 ft | 302 kts | 180° |
| 2026-04-30 08:19 | 45.12405 | 11.06901 | 10934 ft | 299 kts | 180° |
| 2026-04-30 08:19 | 45.10352 | 11.06865 | 10594 ft | 291 kts | 180° |
| 2026-04-30 08:20 | 45.08344 | 11.06830 | 10177 ft | 287 kts | 180° |
| 2026-04-30 08:20 | 45.06352 | 11.06795 | 9713 ft | 285 kts | 180° |
| 2026-04-30 08:20 | 45.04368 | 11.06760 | 9220 ft | 284 kts | 179° |
| 2026-04-30 08:20 | 45.02394 | 11.06723 | 8748 ft | 282 kts | 179° |
| 2026-04-30 08:21 | 45.00439 | 11.06691 | 8324 ft | 279 kts | 179° |
| 2026-04-30 08:21 | 44.98514 | 11.06660 | 7987 ft | 273 kts | 179° |
| 2026-04-30 08:21 | 44.96625 | 11.06627 | 7698 ft | 271 kts | 179° |
| 2026-04-30 08:21 | 44.94739 | 11.06592 | 7390 ft | 271 kts | 179° |
| 2026-04-30 08:22 | 44.92876 | 11.06560 | 7103 ft | 271 kts | 179° |
| 2026-04-30 08:22 | 44.90994 | 11.06528 | 6808 ft | 270 kts | 179° |
| 2026-04-30 08:22 | 44.89111 | 11.06494 | 6517 ft | 271 kts | 179° |
| 2026-04-30 08:22 | 44.87223 | 11.06461 | 6208 ft | 272 kts | 179° |
| 2026-04-30 08:23 | 44.85331 | 11.06428 | 5907 ft | 272 kts | 179° |
| 2026-04-30 08:23 | 44.83436 | 11.06397 | 5602 ft | 272 kts | 179° |
| 2026-04-30 08:23 | 44.81543 | 11.06366 | 5311 ft | 271 kts | 179° |
| 2026-04-30 08:23 | 44.79657 | 11.06335 | 5020 ft | 271 kts | 179° |
| 2026-04-30 08:24 | 44.77775 | 11.06303 | 4742 ft | 269 kts | 179° |
| 2026-04-30 08:24 | 44.75975 | 11.06269 | 4615 ft | 246 kts | 179° |
| 2026-04-30 08:24 | 44.74336 | 11.06239 | 4488 ft | 225 kts | 179° |
| 2026-04-30 08:24 | 44.72838 | 11.06214 | 4349 ft | 205 kts | 178° |
| 2026-04-30 08:25 | 44.71465 | 11.06193 | 4207 ft | 189 kts | 179° |
| 2026-04-30 08:25 | 44.70210 | 11.06170 | 4149 ft | 172 kts | 179° |
| 2026-04-30 08:25 | 44.69034 | 11.06147 | 4195 ft | 162 kts | 178° |
| 2026-04-30 08:25 | 44.67941 | 11.06128 | 4116 ft | 155 kts | 178° |
| 2026-04-30 08:26 | 44.66874 | 11.06111 | 3945 ft | 151 kts | 178° |
| 2026-04-30 08:26 | 44.65836 | 11.06093 | 3803 ft | 148 kts | 178° |
| 2026-04-30 08:26 | 44.64798 | 11.06077 | 3672 ft | 150 kts | 178° |
| 2026-04-30 08:26 | 44.63753 | 11.06062 | 3529 ft | 151 kts | 179° |
| 2026-04-30 08:27 | 44.62697 | 11.06050 | 3365 ft | 152 kts | 176° |
| 2026-04-30 08:27 | 44.61814 | 11.06578 | 3369 ft | 140 kts | 124° |
| 2026-04-30 08:27 | 44.61334 | 11.07770 | 3219 ft | 142 kts | 118° |
| 2026-04-30 08:27 | 44.60805 | 11.08940 | 3043 ft | 142 kts | 118° |
| 2026-04-30 08:28 | 44.60324 | 11.10127 | 2841 ft | 138 kts | 115° |
| 2026-04-30 08:28 | 44.59877 | 11.11306 | 2672 ft | 136 kts | 114° |
| 2026-04-30 08:28 | 44.59449 | 11.12479 | 2506 ft | 135 kts | 114° |
| 2026-04-30 08:28 | 44.59020 | 11.13656 | 2310 ft | 134 kts | 114° |
| 2026-04-30 08:29 | 44.58602 | 11.14815 | 2144 ft | 134 kts | 115° |
| 2026-04-30 08:29 | 44.58183 | 11.15978 | 1960 ft | 132 kts | 114° |
| 2026-04-30 08:29 | 44.57769 | 11.17129 | 1788 ft | 132 kts | 115° |
| 2026-04-30 08:29 | 44.57359 | 11.18261 | 1616 ft | 132 kts | 115° |
| 2026-04-30 08:30 | 44.56947 | 11.19405 | 1436 ft | 131 kts | 116° |
| 2026-04-30 08:30 | 44.56539 | 11.20537 | 1262 ft | 129 kts | 116° |
| 2026-04-30 08:30 | 44.56131 | 11.21666 | 1088 ft | 130 kts | 116° |
| 2026-04-30 08:30 | 44.55720 | 11.22803 | 885 ft | 130 kts | 116° |
| 2026-04-30 08:31 | 44.55315 | 11.23927 | 720 ft | 129 kts | 116° |
| 2026-04-30 08:31 | 44.54910 | 11.25067 | 560 ft | 131 kts | 116° |
| 2026-04-30 08:31 | 44.54499 | 11.26207 | 376 ft | 131 kts | 116° |
| 2026-04-30 08:31 | 44.54096 | 11.27326 | 219 ft | 125 kts | 115° |
| 2026-04-30 08:32 | 44.53722 | 11.28379 | 134 ft | 111 kts | 116° |
| 2026-04-30 08:32 | 44.53438 | 11.29160 | 126 ft | 62 kts | 116° |
| 2026-04-30 08:32 | 44.53333 | 11.29448 | 129 ft | 26 kts | 122° |
| 2026-04-30 08:32 | 44.53217 | 11.29628 | 128 ft | 24 kts | 141° |
| 2026-04-30 08:33 | 44.53104 | 11.29734 | 124 ft | 15 kts | 147° |
| 2026-04-30 08:33 | 44.53040 | 11.29755 | 129 ft | 8 kts | 245° |
| 2026-04-30 08:33 | 44.53054 | 11.29679 | 129 ft | 9 kts | 296° |
| 2026-04-30 08:33 | 44.53086 | 11.29592 | 126 ft | 10 kts | 296° |
| 2026-04-30 08:34 | 44.53117 | 11.29505 | 125 ft | 10 kts | 296° |
| 2026-04-30 08:34 | 44.53147 | 11.29421 | 127 ft | 10 kts | 296° |
| 2026-04-30 08:34 | 44.53135 | 11.29331 | 127 ft | 10 kts | 267° |
| 2026-04-30 08:34 | 44.53164 | 11.29235 | 128 ft | 11 kts | 296° |
| 2026-04-30 08:35 | 44.53139 | 11.29163 | 127 ft | 7 kts | 208° |
| 2026-04-30 08:35 | 44.53096 | 11.29135 | 125 ft | 7 kts | 192° |
| 2026-04-30 08:35 | 44.53064 | 11.29175 | 128 ft | 5 kts | 118° |
| 2026-04-30 08:35 | 44.53055 | 11.29200 | 129 ft | 2 kts | 116° |
| 2026-04-30 08:36 | 44.53055 | 11.29202 | 128 ft | 0 kts | 116° |
| 2026-04-30 08:36 | 44.53033 | 11.29213 | 129 ft | 0 kts | 116° |